createdAt,value
2022-09-11T00:01:01.173Z,13.00
2022-09-11T00:03:28.296Z,15.00
2022-09-11T00:05:55.087Z,13.52
2022-09-11T00:08:22.197Z,14.30
2022-09-11T00:10:49.319Z,15.68
2022-09-11T00:13:21.789Z,16.13
2022-09-11T00:18:21.819Z,14.43
2022-09-11T00:20:56.822Z,17.92
2022-09-11T00:23:26.423Z,17.52
2022-09-11T00:25:53.528Z,284.02
2022-09-11T00:28:22.986Z,24.92
2022-09-11T00:31:07.624Z,26.45
2022-09-11T00:33:36.118Z,25.40
2022-09-11T00:36:07.812Z,27.67
2022-09-11T00:38:37.222Z,23.03
2022-09-11T00:41:07.899Z,19.73
2022-09-11T00:43:52.965Z,24.33
2022-09-11T00:46:20.925Z,34.00
2022-09-11T00:48:50.101Z,36.22
2022-09-11T00:51:28.168Z,37.38
2022-09-11T00:53:57.779Z,33.88
2022-09-11T00:56:29.209Z,26.40
2022-09-11T00:58:57.270Z,25.05
2022-09-11T01:01:24.069Z,61.38
2022-09-11T01:03:51.480Z,28.08
2022-09-11T01:06:21.039Z,24.48
2022-09-11T01:08:47.862Z,26.00
2022-09-11T01:11:31.520Z,17.75
2022-09-11T01:14:34.139Z,42.85
2022-09-11T01:17:29.564Z,29.17
2022-09-11T01:20:20.781Z,20.90
2022-09-11T01:23:07.331Z,35.67
2022-09-11T01:25:52.150Z,31.15
2022-09-11T01:28:35.596Z,33.28
2022-09-11T01:31:10.293Z,33.55
2022-09-11T01:33:43.974Z,46.80
2022-09-11T01:36:21.297Z,22.77
2022-09-11T01:39:00.650Z,58.80
2022-09-11T01:41:45.213Z,28.83
2022-09-11T01:44:34.157Z,32.22
2022-09-11T01:47:03.603Z,29.92
2022-09-11T01:49:55.759Z,43.90
2022-09-11T01:52:30.882Z,38.83
2022-09-11T01:55:26.064Z,43.22
2022-09-11T01:57:58.452Z,46.05
2022-09-11T02:00:25.327Z,49.92
2022-09-11T02:03:01.173Z,42.10
2022-09-11T02:05:38.017Z,45.05
2022-09-11T02:08:12.138Z,54.63
2022-09-11T02:10:42.617Z,54.33
2022-09-11T02:13:32.287Z,47.15
2022-09-11T02:16:31.552Z,50.17
2022-09-11T02:19:04.058Z,44.40
2022-09-11T02:23:59.071Z,50.75
2022-09-11T02:26:29.057Z,56.92
2022-09-11T02:28:56.027Z,59.90
2022-09-11T02:31:23.255Z,56.60
2022-09-11T02:33:51.284Z,49.53
2022-09-11T02:36:29.790Z,49.60
2022-09-11T02:39:08.810Z,49.83
2022-09-11T02:41:57.438Z,51.30
2022-09-11T02:44:27.010Z,49.05
2022-09-11T02:47:18.540Z,47.70
2022-09-11T02:50:04.962Z,49.70
2022-09-11T02:52:59.226Z,48.28
2022-09-11T02:56:04.572Z,47.72
2022-09-11T02:58:46.374Z,48.90
2022-09-11T03:01:13.312Z,55.27
2022-09-11T03:03:43.010Z,55.38
2022-09-11T03:06:18.176Z,53.28
2022-09-11T03:08:45.688Z,54.83
2022-09-11T03:11:15.342Z,46.15
2022-09-11T03:13:42.436Z,53.20
2022-09-11T03:16:09.426Z,53.80
2022-09-11T03:18:36.397Z,59.10
2022-09-11T03:21:03.794Z,55.63
2022-09-11T03:23:31.143Z,53.50
2022-09-11T03:25:58.780Z,58.92
2022-09-11T03:28:25.665Z,52.05
2022-09-11T03:30:55.629Z,51.22
2022-09-11T03:33:22.474Z,53.53
2022-09-11T03:35:49.217Z,53.30
2022-09-11T03:38:16.066Z,50.20
2022-09-11T03:40:44.556Z,50.17
2022-09-11T03:43:16.624Z,59.88
2022-09-11T03:45:44.918Z,53.70
2022-09-11T03:48:11.941Z,51.70
2022-09-11T03:50:38.739Z,50.83
2022-09-11T03:53:05.776Z,50.47
2022-09-11T03:55:32.747Z,46.30
2022-09-11T03:58:00.117Z,54.55
2022-09-11T04:00:27.074Z,52.47
2022-09-11T04:02:55.484Z,48.30
2022-09-11T04:05:25.676Z,50.97
2022-09-11T04:07:53.163Z,49.25
2022-09-11T04:10:20.246Z,44.33
2022-09-11T04:12:50.114Z,47.05
2022-09-11T04:15:16.964Z,42.92
2022-09-11T04:17:43.920Z,44.53
2022-09-11T04:20:11.164Z,46.20
2022-09-11T04:22:41.013Z,41.55
2022-09-11T04:25:08.361Z,46.60
2022-09-11T04:27:35.137Z,39.33
2022-09-11T04:30:01.884Z,42.05
2022-09-11T04:32:29.277Z,39.20
2022-09-11T04:34:56.378Z,39.25
2022-09-11T04:37:23.123Z,39.33
2022-09-11T04:39:50.040Z,43.83
2022-09-11T04:42:16.883Z,40.85
2022-09-11T04:44:43.649Z,35.42
2022-09-11T04:47:10.442Z,34.22
2022-09-11T04:49:37.166Z,37.95
2022-09-11T04:52:06.135Z,32.80
2022-09-11T04:54:37.144Z,34.80
2022-09-11T04:57:04.326Z,34.97
2022-09-11T04:59:31.286Z,34.85
2022-09-11T05:01:58.233Z,34.08
2022-09-11T05:04:26.407Z,36.95
2022-09-11T05:06:53.717Z,35.80
2022-09-11T05:09:20.661Z,35.85
2022-09-11T05:11:47.732Z,32.72
2022-09-11T05:14:15.337Z,34.17
2022-09-11T05:16:43.748Z,37.85
2022-09-11T05:19:10.680Z,32.72
2022-09-11T05:21:37.648Z,31.65
2022-09-11T05:24:04.759Z,33.15
2022-09-11T05:26:36.111Z,30.20
2022-09-11T05:29:09.282Z,29.95
2022-09-11T05:31:37.292Z,28.50
2022-09-11T05:34:05.172Z,30.10
2022-09-11T05:36:33.146Z,27.80
2022-09-11T05:39:00.207Z,26.92
2022-09-11T05:41:27.346Z,25.85
2022-09-11T05:43:54.784Z,27.73
2022-09-11T05:46:21.934Z,26.27
2022-09-11T05:48:48.920Z,26.05
2022-09-11T05:51:19.029Z,24.27
2022-09-11T05:53:50.419Z,19.67
2022-09-11T05:56:20.080Z,23.75
2022-09-11T05:58:48.256Z,22.80
2022-09-11T06:01:17.493Z,20.77
2022-09-11T06:03:44.946Z,21.83
2022-09-11T06:06:12.939Z,19.65
2022-09-11T06:08:44.552Z,20.65
2022-09-11T06:11:13.295Z,17.30
2022-09-11T06:13:42.342Z,20.80
2022-09-11T06:16:14.557Z,21.40
2022-09-11T06:18:44.878Z,18.95
2022-09-11T06:21:13.159Z,22.70
2022-09-11T06:23:40.437Z,21.95
2022-09-11T06:26:10.075Z,20.92
2022-09-11T06:28:37.984Z,22.63
2022-09-11T06:31:06.533Z,19.10
2022-09-11T06:33:36.157Z,23.17
2022-09-11T06:36:05.493Z,21.02
2022-09-11T06:38:32.934Z,22.52
2022-09-11T06:41:04.827Z,18.80
2022-09-11T06:43:32.682Z,20.83
2022-09-11T06:46:17.126Z,17.45
2022-09-11T06:48:46.092Z,21.23
2022-09-11T06:51:15.452Z,21.35
2022-09-11T06:53:43.093Z,20.23
2022-09-11T06:56:14.957Z,18.30
2022-09-11T06:58:41.764Z,17.30
2022-09-11T07:01:14.409Z,20.50
2022-09-11T07:03:52.962Z,18.20
2022-09-11T07:06:25.042Z,16.05
2022-09-11T07:08:53.746Z,15.63
2022-09-11T07:11:20.913Z,15.18
2022-09-11T07:13:47.920Z,15.77
2022-09-11T07:16:15.130Z,19.40
2022-09-11T07:18:44.536Z,14.38
2022-09-11T07:21:18.761Z,17.13
2022-09-11T07:23:49.675Z,13.77
2022-09-11T07:26:17.445Z,14.40
2022-09-11T07:28:44.498Z,14.13
2022-09-11T07:31:20.635Z,14.68
2022-09-11T07:33:49.929Z,12.05
2022-09-11T07:36:22.310Z,12.38
2022-09-11T07:41:18.600Z,13.52
2022-09-11T07:43:48.372Z,11.25
2022-09-11T07:46:15.488Z,15.93
2022-09-11T07:48:43.148Z,11.05
2022-09-11T07:51:16.101Z,10.38
2022-09-11T07:53:48.343Z,10.57
2022-09-11T07:56:18.667Z,11.25
2022-09-11T07:58:46.354Z,12.82
2022-09-11T08:01:16.294Z,11.50
2022-09-11T08:03:44.057Z,13.55
2022-09-11T08:06:22.155Z,13.05
2022-09-11T10:42:23.173Z,6.32
2022-09-11T10:44:52.275Z,6.93
2022-09-11T10:47:25.464Z,7.53
2022-09-11T10:50:20.442Z,5.85
2022-09-11T10:53:20.692Z,6.38
2022-09-11T10:55:58.121Z,6.15
2022-09-11T10:58:31.146Z,5.22
2022-09-11T11:00:58.462Z,5.05
2022-09-11T11:03:27.678Z,7.68
2022-09-11T11:06:06.581Z,6.47
2022-09-11T11:08:36.650Z,5.82
2022-09-11T11:11:18.702Z,5.05
2022-09-11T11:13:53.490Z,7.47
2022-09-11T11:16:29.139Z,4.07
2022-09-11T11:19:04.828Z,5.97
2022-09-11T11:22:03.377Z,4.43
2022-09-11T11:24:49.005Z,5.18
2022-09-11T11:27:24.790Z,4.70
2022-09-11T11:30:08.907Z,4.32
2022-09-11T11:32:44.898Z,6.65
2022-09-11T11:35:25.952Z,4.00
2022-09-11T11:38:02.918Z,5.53
2022-09-11T11:40:40.497Z,5.50
2022-09-11T11:43:13.416Z,6.68
2022-09-11T11:46:02.430Z,2.20
2022-09-11T11:48:52.546Z,4.28
2022-09-11T11:51:23.771Z,3.67
2022-09-11T11:53:50.468Z,2.88
2022-09-11T11:56:19.991Z,2.13
2022-09-11T11:59:17.501Z,2.83
2022-09-11T12:01:48.017Z,2.88
2022-09-11T12:04:49.743Z,3.95
2022-09-11T12:07:26.185Z,2.15
2022-09-11T12:09:55.719Z,3.45
2022-09-11T12:12:24.961Z,3.95
2022-09-11T12:15:02.517Z,2.53
2022-09-11T12:17:32.622Z,2.10
2022-09-11T12:20:33.345Z,3.85
2022-09-11T12:23:00.860Z,3.53
2022-09-11T12:25:31.137Z,2.97
2022-09-11T12:28:34.742Z,2.53
2022-09-11T12:31:06.790Z,2.00
2022-09-11T12:33:47.187Z,3.25
2022-09-11T12:36:24.290Z,3.20
2022-09-11T12:38:59.482Z,2.55
2022-09-11T12:41:31.448Z,1.95
2022-09-11T12:43:58.359Z,3.42
2022-09-11T12:46:28.119Z,2.38
2022-09-11T12:49:21.537Z,2.42
2022-09-11T12:51:56.361Z,4.55
2022-09-11T12:54:23.175Z,1.95
2022-09-11T12:57:13.008Z,3.97
2022-09-11T12:59:43.240Z,3.05
2022-09-11T13:02:51.093Z,3.03
2022-09-11T13:05:36.492Z,2.05
2022-09-11T13:08:09.082Z,2.88
2022-09-11T13:10:38.765Z,4.95
2022-09-11T13:13:28.364Z,1.40
2022-09-11T13:15:58.073Z,1.48
2022-09-11T13:18:26.373Z,1.42
2022-09-11T13:21:09.037Z,1.50
2022-09-11T13:23:35.822Z,2.30
2022-09-11T13:26:05.389Z,3.30
2022-09-11T13:28:42.970Z,2.08
2022-09-11T13:31:21.432Z,2.08
2022-09-11T13:33:51.235Z,4.28
2022-09-11T13:36:23.069Z,3.15
2022-09-11T13:38:54.492Z,2.05
2022-09-11T13:41:29.959Z,1.63
2022-09-11T13:44:01.508Z,1.73
2022-09-11T13:46:31.607Z,1.53
2022-09-11T13:49:11.146Z,1.23
2022-09-11T13:51:45.817Z,2.05
2022-09-11T13:54:23.951Z,2.20
2022-09-11T13:56:56.907Z,3.08
2022-09-11T13:59:36.965Z,1.20
2022-09-11T14:02:08.645Z,1.83
2022-09-11T14:04:40.668Z,2.25
2022-09-11T14:07:20.891Z,1.67
2022-09-11T14:09:59.667Z,2.75
2022-09-11T14:12:28.934Z,1.70
2022-09-11T14:14:58.427Z,2.08
2022-09-11T14:17:25.820Z,0.90
2022-09-11T14:19:58.967Z,1.35
2022-09-11T14:22:33.534Z,1.25
2022-09-11T14:25:24.060Z,1.73
2022-09-11T14:27:51.329Z,1.05
2022-09-11T14:30:25.258Z,1.92
2022-09-11T14:33:13.047Z,2.42
2022-09-11T14:35:40.054Z,1.20
2022-09-11T14:38:09.240Z,1.48
2022-09-11T14:40:36.662Z,1.00
2022-09-11T14:43:05.312Z,4.97
2022-09-11T14:45:32.144Z,1.23
2022-09-11T14:48:00.170Z,1.38
2022-09-11T14:50:27.711Z,1.27
2022-09-11T14:52:54.534Z,1.15
2022-09-11T14:55:21.410Z,1.63
2022-09-11T14:57:48.355Z,0.77
2022-09-11T15:00:18.217Z,0.88
2022-09-11T15:02:46.451Z,0.73
2022-09-11T15:05:19.341Z,5.85
2022-09-11T15:07:46.121Z,1.75
2022-09-11T15:10:13.892Z,1.30
2022-09-11T15:12:40.759Z,4.43
2022-09-11T15:15:08.202Z,1.25
2022-09-11T15:17:36.513Z,0.80
2022-09-11T15:20:09.476Z,0.60
2022-09-11T15:22:38.280Z,2.25
2022-09-11T15:25:05.905Z,1.70
2022-09-11T15:27:32.733Z,0.85
2022-09-11T15:30:00.565Z,1.40
2022-09-11T15:32:27.521Z,1.08
2022-09-11T15:34:54.848Z,3.53
2022-09-11T15:37:21.662Z,0.70
2022-09-11T15:39:50.476Z,0.55
2022-09-11T15:42:17.948Z,0.40
2022-09-11T15:44:46.202Z,1.08
2022-09-11T15:47:13.765Z,0.70
2022-09-11T15:49:42.489Z,1.13
2022-09-11T15:52:09.261Z,1.15
2022-09-11T15:54:36.238Z,0.88
2022-09-11T15:57:03.246Z,0.80
2022-09-11T15:59:30.017Z,0.80
2022-09-11T16:01:57.000Z,0.65
2022-09-11T16:04:28.175Z,0.90
2022-09-11T16:06:55.250Z,0.70
2022-09-11T16:09:25.214Z,2.40
2022-09-11T16:11:54.496Z,0.90
2022-09-11T16:14:24.632Z,0.93
2022-09-11T16:16:52.507Z,0.63
2022-09-11T16:19:21.499Z,0.80
2022-09-11T16:21:49.259Z,0.65
2022-09-11T16:24:16.765Z,0.63
2022-09-11T16:26:44.533Z,0.70
2022-09-11T16:29:14.557Z,0.77
2022-09-11T16:31:42.647Z,0.60
2022-09-11T16:34:10.498Z,0.82
2022-09-11T16:36:41.881Z,0.90
2022-09-11T16:39:14.428Z,1.83
2022-09-11T16:41:41.738Z,1.77
2022-09-11T16:44:11.914Z,0.63
2022-09-11T16:46:39.314Z,0.88
2022-09-11T16:49:06.331Z,0.93
2022-09-11T16:51:34.206Z,1.02
2022-09-11T16:54:03.550Z,0.70
2022-09-11T16:56:30.512Z,2.70
2022-09-11T16:58:57.244Z,1.00
2022-09-11T17:01:26.383Z,1.05
2022-09-11T17:03:57.783Z,0.77
2022-09-11T17:06:30.256Z,0.80
2022-09-11T17:08:59.755Z,1.98
2022-09-11T17:11:28.222Z,3.90
2022-09-11T17:13:55.136Z,2.72
2022-09-11T17:16:26.056Z,2.08
2022-09-11T17:18:56.690Z,1.67
2022-09-11T17:21:24.892Z,1.25
2022-09-11T17:23:53.636Z,1.45
2022-09-11T17:26:21.543Z,2.15
2022-09-11T17:28:50.064Z,1.05
2022-09-11T17:31:19.438Z,1.65
2022-09-11T17:33:47.670Z,1.02
2022-09-11T17:36:17.266Z,1.17
2022-09-11T17:38:45.882Z,1.00
2022-09-11T17:41:13.129Z,1.05
2022-09-11T17:43:40.689Z,2.47
2022-09-11T17:46:11.452Z,1.65
2022-09-11T17:48:39.857Z,1.52
2022-09-11T17:51:12.957Z,1.88
2022-09-11T17:53:42.753Z,1.80
2022-09-11T17:56:13.190Z,2.38
2022-09-11T17:58:41.228Z,1.23
2022-09-11T18:01:08.241Z,1.45
2022-09-11T18:03:35.785Z,1.80
2022-09-11T18:06:05.620Z,1.70
2022-09-11T18:08:33.303Z,1.58
2022-09-11T18:11:01.295Z,2.25
2022-09-11T18:13:34.607Z,1.95
2022-09-11T18:16:02.966Z,1.67
2022-09-11T18:18:30.709Z,1.50
2022-09-11T18:21:05.481Z,1.48
2022-09-11T18:23:32.421Z,2.50
2022-09-11T18:26:01.092Z,2.30
2022-09-11T18:28:29.782Z,2.10
2022-09-11T18:31:04.896Z,2.28
2022-09-11T18:33:32.783Z,2.08
2022-09-11T18:36:12.020Z,1.60
2022-09-11T18:38:38.798Z,3.33
2022-09-11T18:41:05.743Z,2.03
2022-09-11T18:43:32.704Z,3.08
2022-09-11T18:46:02.938Z,2.50
2022-09-11T18:48:29.930Z,5.70
2022-09-11T18:51:00.040Z,2.88
2022-09-11T18:53:27.074Z,3.22
2022-09-11T18:56:05.315Z,2.17
2022-09-11T18:58:33.891Z,2.58
2022-09-11T19:01:09.003Z,2.47
2022-09-11T19:03:40.143Z,2.13
2022-09-11T19:06:09.407Z,2.80
2022-09-11T19:08:37.649Z,1.83
2022-09-11T19:11:14.366Z,2.50
2022-09-11T19:13:42.574Z,6.65
2022-09-11T19:16:09.999Z,2.95
2022-09-11T19:18:38.940Z,2.92
2022-09-11T19:21:14.777Z,2.42
2022-09-11T19:23:43.867Z,3.00
2022-09-11T19:26:14.802Z,2.38
2022-09-11T19:28:43.162Z,2.67
2022-09-11T19:31:12.172Z,4.07
2022-09-11T19:33:40.255Z,3.53
2022-09-11T19:36:11.864Z,2.95
2022-09-11T19:38:43.140Z,2.60
2022-09-11T19:41:12.909Z,4.07
2022-09-11T19:43:41.158Z,2.92
2022-09-11T19:46:11.217Z,4.03
2022-09-11T19:48:38.081Z,3.30
2022-09-11T19:51:17.109Z,4.13
2022-09-11T19:53:44.318Z,4.30
2022-09-11T19:56:12.254Z,4.38
2022-09-11T19:58:39.777Z,3.53
2022-09-11T20:01:15.117Z,3.88
2022-09-11T20:03:44.600Z,4.10
2022-09-11T20:06:13.118Z,3.97
2022-09-11T20:08:43.440Z,4.07
2022-09-11T20:11:12.972Z,3.50
2022-09-11T20:13:39.828Z,4.05
2022-09-11T20:16:08.956Z,3.28
2022-09-11T20:18:36.267Z,3.95
2022-09-11T20:21:06.970Z,5.65
2022-09-11T20:23:34.531Z,3.63
2022-09-11T20:26:22.349Z,5.00
2022-09-11T20:29:13.672Z,6.05
2022-09-11T20:31:47.448Z,4.03
2022-09-11T20:34:16.947Z,4.50
2022-09-11T20:36:43.773Z,4.07
2022-09-11T20:39:13.630Z,8.45
2022-09-11T20:41:40.645Z,5.40
2022-09-11T20:44:07.541Z,4.22
2022-09-11T20:46:34.357Z,8.15
2022-09-11T20:49:01.185Z,4.65
2022-09-11T20:51:27.977Z,6.25
2022-09-11T20:53:56.117Z,8.02
2022-09-11T20:56:24.150Z,5.38
2022-09-11T20:58:51.926Z,9.38
2022-09-11T21:01:24.433Z,6.18
2022-09-11T21:03:53.426Z,5.55
2022-09-11T21:06:25.514Z,5.22
2022-09-11T21:08:55.589Z,5.28
2022-09-11T21:11:26.778Z,8.23
2022-09-11T21:13:53.600Z,4.68
2022-09-11T21:16:21.042Z,5.85
2022-09-11T21:18:56.273Z,5.85
2022-09-11T21:21:24.149Z,9.13
2022-09-11T21:23:54.397Z,4.95
2022-09-11T21:26:21.169Z,5.13
2022-09-11T21:28:48.082Z,7.50
2022-09-11T21:31:14.885Z,4.70
2022-09-11T21:33:41.778Z,8.82
2022-09-11T21:36:09.013Z,8.25
2022-09-11T21:38:37.414Z,8.27
2022-09-11T21:41:07.260Z,8.00
2022-09-11T21:43:34.370Z,5.45
2022-09-11T21:46:01.816Z,5.03
2022-09-11T21:48:32.369Z,5.28
2022-09-11T21:51:10.164Z,6.35
2022-09-11T21:53:38.204Z,5.07
2022-09-11T21:56:06.442Z,8.25
2022-09-11T21:58:33.485Z,7.00
2022-09-11T22:01:08.209Z,6.22
2022-09-11T22:03:35.138Z,5.65
2022-09-11T22:06:09.101Z,6.85
2022-09-11T22:08:37.946Z,9.90
2022-09-11T22:11:05.290Z,5.30
2022-09-11T22:13:32.913Z,5.03
2022-09-11T22:16:00.400Z,4.95
2022-09-11T22:18:27.224Z,5.82
2022-09-11T22:20:58.248Z,5.38
2022-09-11T22:23:25.087Z,9.93
2022-09-11T22:25:58.832Z,7.22
2022-09-11T22:28:25.786Z,5.15
2022-09-11T22:30:52.640Z,7.22
2022-09-11T22:33:19.504Z,5.30
2022-09-11T22:35:49.397Z,5.60
2022-09-11T22:38:16.633Z,4.65
2022-09-11T22:40:43.592Z,6.60
2022-09-11T22:43:10.361Z,5.32
2022-09-11T22:45:37.434Z,6.53
2022-09-11T22:48:04.958Z,5.60
2022-09-11T22:50:33.512Z,6.20
2022-09-11T22:53:00.312Z,5.15
2022-09-11T22:55:27.333Z,7.20
2022-09-11T22:57:54.208Z,6.78
2022-09-11T23:00:21.042Z,8.05
2022-09-11T23:02:47.833Z,5.25
2022-09-11T23:05:33.129Z,6.45
2022-09-11T23:07:59.901Z,10.02
2022-09-11T23:10:26.795Z,6.93
2022-09-11T23:12:53.745Z,6.97
2022-09-11T23:15:21.254Z,10.95
2022-09-11T23:17:48.098Z,10.80
2022-09-11T23:20:14.932Z,6.78
2022-09-11T23:22:41.759Z,5.10
2022-09-11T23:25:08.984Z,6.28
2022-09-11T23:27:35.773Z,5.32
2022-09-11T23:30:02.720Z,5.55
2022-09-11T23:32:29.471Z,5.07
2022-09-11T23:34:56.373Z,5.15
2022-09-11T23:37:23.122Z,6.50
2022-09-11T23:39:50.076Z,5.18
2022-09-11T23:42:16.860Z,8.65
2022-09-11T23:44:43.615Z,4.50
2022-09-11T23:47:10.353Z,4.90
2022-09-11T23:49:37.152Z,5.88
2022-09-11T23:52:04.912Z,6.85
2022-09-11T23:54:31.733Z,9.27
2022-09-11T23:56:59.048Z,5.75
2022-09-11T23:59:26.006Z,6.18
